Airfield :







YOU CAN JOIN US ON...

 
LOGIN :

Register | Disclaimer

   EN    FR    IT 

 









Legend :    VFR   Marginal VFR   IFR   Intensive IFR   Very Intensive IFR
Visi :
Ceiling :
>= 8 km
>= 3000ft
5 to 8 km
1000 to 3000 ft
1500m to 5 km
500 to 1000 ft
800 to 1500m
200 to 500 ft
< 800m
< 200 ft
Symbols :   Thunderstorms  Fog  Heavy snow  Heavy precipitations  Wind > 20 kt






- Airport Elevation : 787 ft
- IATA code : RUT


KRUT - Rutland - Southern Vermont Regional

CURRENT METAR :
  • 150856Z AUTO 12004KT 10SM CLR 11/10 A3005 RMK AO2 SLP167 T01110100 58004 $

EXPIRED METARs :
  • 150756Z AUTO 15004KT 10SM SCT085 11/10 A3006 RMK AO2 SLP171 T01110100 $
  • 150656Z AUTO 15004KT 10SM CLR 12/10 A3006 RMK AO2 SLP170 T01170100 $

TAF KRUT
Valid from the 15 at 06:00 until the 16 at 06:00 UTC


150538Z 1506/1606 13008KT P6SM SKC
FM151400 VRB04KT P6SM FEW080
FM160100 13005KT P6SM SKC
KZBW FIR / North America



MET'MAP, your aeronautical weather chart ! - Copyright ORBIFLY December 2007 - Disclaimer

ORBIFLY MET'MAP TEAM :

Programming & Development : Alexandra Zaïnal
Original concept : Baudouin d'Aumeries
Technical & hardware support : Manuel Goepfert
Assistance : Marc-Olivier Méhu




SOURCES & CREDITS :

   NOAA